Time;durP1;ratioP1;P1;durP2;ratioP2;P2;SDS_P1;SDS_P2;PMS_P1;PMS_P2;Temp;Humidity;BMP_temperature;BMP_pressure;BME280_temperature;BME280_humidity;BME280_pressure;Samples;Min_cycle;Max_cycle;Signal;HPM_P1;HPM_P2
2023/07/19 00:02:09;;;;;;;1.50;1.00;;;20.60;62.20;;;;;;5076877;28;20461;-58
2023/07/19 00:04:36;;;;;;;2.20;1.00;;;20.60;81.00;;;;;;5076151;28;20435;-59
2023/07/19 00:07:03;;;;;;;1.90;1.00;;;20.60;83.20;;;;;;5076937;28;20431;-59
2023/07/19 00:09:30;;;;;;;1.30;1.00;;;20.60;84.90;;;;;;5076797;28;20434;-59
2023/07/19 00:11:57;;;;;;;1.75;1.00;;;20.60;74.90;;;;;;5076866;28;20797;-59
2023/07/19 00:14:24;;;;;;;1.40;1.00;;;20.60;74.10;;;;;;5077086;28;20422;-59
2023/07/19 00:16:51;;;;;;;2.20;1.10;;;20.70;78.40;;;;;;5076464;28;20436;-59
2023/07/19 00:19:20;;;;;;;2.30;1.00;;;20.70;64.40;;;;;;5076667;28;20446;-58
2023/07/19 00:21:47;;;;;;;1.60;1.00;;;20.70;67.90;;;;;;5076828;28;20427;-59
2023/07/19 00:24:14;;;;;;;1.80;1.10;;;20.60;52.90;;;;;;5076153;28;20426;-58
2023/07/19 00:26:41;;;;;;;1.67;1.10;;;20.70;40.90;;;;;;5076138;28;20427;-58
2023/07/19 00:29:08;;;;;;;1.70;1.13;;;20.70;40.60;;;;;;5075807;28;20895;-58
2023/07/19 00:31:35;;;;;;;1.90;1.00;;;20.70;28.10;;;;;;5076263;28;20470;-59
2023/07/19 00:34:02;;;;;;;3.80;1.00;;;20.80;18.60;;;;;;5075985;28;20482;-59
2023/07/19 00:36:31;;;;;;;2.30;1.00;;;20.80;9.10;;;;;;5076266;28;20881;-58
2023/07/19 00:38:58;;;;;;;2.97;1.00;;;20.90;11.10;;;;;;5075929;28;20458;-58
2023/07/19 00:41:25;;;;;;;1.75;0.90;;;20.90;2.70;;;;;;5076723;28;20424;-58
2023/07/19 00:43:52;;;;;;;1.77;1.00;;;20.90;7.90;;;;;;5075763;28;20771;-58
2023/07/19 00:46:21;;;;;;;1.30;0.90;;;20.90;10.20;;;;;;5075954;28;20514;-59
2023/07/19 00:48:48;;;;;;;1.70;1.00;;;21.00;1.00;;;;;;5075484;28;20796;-58
2023/07/19 00:51:16;;;;;;;1.47;1.10;;;21.00;1.00;;;;;;5075622;28;20415;-58
2023/07/19 00:53:48;;;;;;;1.92;0.90;;;20.80;24.90;;;;;;5075701;28;20436;-58
2023/07/19 00:56:15;;;;;;;1.40;1.10;;;20.80;37.70;;;;;;5075724;28;21044;-59
2023/07/19 00:58:43;;;;;;;1.92;0.90;;;20.70;44.50;;;;;;5075608;28;20438;-58
2023/07/19 01:01:10;;;;;;;1.50;0.90;;;20.70;46.10;;;;;;5076079;28;20831;-58
2023/07/19 01:03:37;;;;;;;2.10;1.08;;;20.70;55.70;;;;;;5073877;28;20420;-56
2023/07/19 01:06:04;;;;;;;1.73;1.00;;;20.80;54.30;;;;;;5075653;28;20422;-58
2023/07/19 01:08:32;;;;;;;1.70;1.02;;;20.70;56.90;;;;;;5076050;28;20427;-59
2023/07/19 01:11:00;;;;;;;2.00;1.10;;;20.60;49.80;;;;;;5074754;28;20431;-58
2023/07/19 01:13:28;;;;;;;1.40;0.90;;;20.60;56.90;;;;;;5074813;28;20521;-59
2023/07/19 01:15:55;;;;;;;1.52;1.10;;;20.40;54.00;;;;;;5075040;28;20423;-58
2023/07/19 01:18:22;;;;;;;2.25;1.00;;;20.30;66.40;;;;;;5075590;28;20820;-59
2023/07/19 01:20:49;;;;;;;2.67;1.30;;;20.20;75.60;;;;;;5075616;28;20427;-58
2023/07/19 01:23:18;;;;;;;2.08;0.98;;;20.20;65.60;;;;;;5075776;28;20500;-59
2023/07/19 01:25:45;;;;;;;2.65;1.10;;;20.20;67.60;;;;;;5075875;28;20851;-58
2023/07/19 01:28:12;;;;;;;1.83;1.00;;;20.20;57.40;;;;;;5075094;28;20435;-58
2023/07/19 01:30:39;;;;;;;1.50;0.90;;;20.20;58.00;;;;;;5074583;28;20887;-59
2023/07/19 01:33:06;;;;;;;1.90;1.00;;;20.20;57.90;;;;;;5075099;28;20432;-58
2023/07/19 01:35:33;;;;;;;2.00;1.08;;;20.30;52.60;;;;;;5075635;28;20432;-58
2023/07/19 01:38:00;;;;;;;2.00;1.00;;;20.30;52.30;;;;;;5075525;28;20431;-59
2023/07/19 01:40:29;;;;;;;2.17;1.13;;;20.30;50.70;;;;;;5075155;28;20431;-59
2023/07/19 01:42:56;;;;;;;1.70;0.95;;;20.50;39.40;;;;;;5075298;28;20741;-59
2023/07/19 01:45:23;;;;;;;2.10;1.00;;;20.60;24.10;;;;;;5074949;28;20427;-58
2023/07/19 01:47:50;;;;;;;1.90;1.25;;;20.60;24.90;;;;;;5074788;28;20509;-58
2023/07/19 01:50:17;;;;;;;1.67;0.90;;;20.60;31.80;;;;;;5074163;28;20573;-59
2023/07/19 01:52:44;;;;;;;1.30;1.05;;;20.60;23.50;;;;;;5073250;28;20851;-60
2023/07/19 01:55:11;;;;;;;1.60;0.80;;;20.40;21.40;;;;;;5074292;28;20453;-59
2023/07/19 01:57:40;;;;;;;1.67;1.00;;;20.30;28.10;;;;;;5072773;28;20423;-59
2023/07/19 02:00:08;;;;;;;1.30;1.00;;;20.20;42.00;;;;;;5074923;28;20470;-59
2023/07/19 02:02:35;;;;;;;1.30;0.90;;;20.20;39.00;;;;;;5073651;28;20712;-59
2023/07/19 02:05:02;;;;;;;1.40;1.00;;;20.20;38.90;;;;;;5075136;28;20723;-59
2023/07/19 02:07:29;;;;;;;1.80;0.90;;;20.30;27.60;;;;;;5074626;28;20840;-59
2023/07/19 02:09:56;;;;;;;1.42;0.80;;;20.30;12.30;;;;;;5074665;28;20427;-59
2023/07/19 02:12:23;;;;;;;2.40;1.00;;;20.30;3.70;;;;;;5072786;28;20435;-60
2023/07/19 02:14:54;;;;;;;2.10;1.10;;;20.20;15.90;;;;;;5074043;28;20434;-59
2023/07/19 02:17:22;;;;;;;1.30;1.00;;;20.20;20.90;;;;;;5074236;28;20474;-60
2023/07/19 02:19:49;;;;;;;2.47;1.00;;;20.30;15.70;;;;;;5074470;28;20936;-60
2023/07/19 02:22:16;;;;;;;1.60;0.90;;;20.20;21.90;;;;;;5074826;28;20431;-59
2023/07/19 02:24:43;;;;;;;2.40;1.10;;;20.20;17.80;;;;;;5074460;28;20840;-59
2023/07/19 02:27:11;;;;;;;1.90;0.90;;;20.10;6.90;;;;;;5074693;28;20478;-60
2023/07/19 02:29:38;;;;;;;1.77;1.10;;;20.10;8.00;;;;;;5074597;28;20427;-60
2023/07/19 02:32:07;;;;;;;2.05;1.02;;;20.10;1.00;;;;;;5073863;28;20427;-59
2023/07/19 02:34:34;;;;;;;1.80;1.10;;;20.00;1.00;;;;;;5074182;28;20435;-59
2023/07/19 02:37:01;;;;;;;1.50;1.00;;;20.00;1.00;;;;;;5074950;28;20808;-60
2023/07/19 02:39:30;;;;;;;2.58;1.45;;;20.00;5.20;;;;;;5074636;28;20715;-60
2023/07/19 02:41:57;;;;;;;2.47;1.10;;;20.00;5.40;;;;;;5074688;28;20506;-60
2023/07/19 02:44:24;;;;;;;1.30;0.90;;;20.00;9.10;;;;;;5074702;28;20488;-59
2023/07/19 02:46:51;;;;;;;1.83;0.90;;;20.00;1.00;;;;;;5074452;28;20431;-59
2023/07/19 02:49:20;;;;;;;2.00;1.00;;;20.10;1.00;;;;;;5073938;28;20761;-60
2023/07/19 02:51:47;;;;;;;2.03;0.90;;;20.10;1.00;;;;;;5074261;28;20846;-59
2023/07/19 02:54:14;;;;;;;1.60;0.95;;;20.10;1.00;;;;;;5072606;28;20423;-59
2023/07/19 02:56:41;;;;;;;1.30;0.90;;;20.10;1.00;;;;;;5073780;28;20435;-59
2023/07/19 02:59:08;;;;;;;1.60;0.95;;;20.10;1.00;;;;;;5074252;28;20427;-59
2023/07/19 03:01:36;;;;;;;2.78;0.90;;;20.10;1.00;;;;;;5074390;28;20739;-60
2023/07/19 03:04:03;;;;;;;1.40;0.95;;;20.10;1.00;;;;;;5074721;28;20504;-60
2023/07/19 03:06:31;;;;;;;2.13;0.93;;;20.10;1.00;;;;;;5074551;28;20455;-59
2023/07/19 03:08:58;;;;;;;1.50;1.00;;;20.10;1.00;;;;;;5074256;28;20839;-60
2023/07/19 03:11:25;;;;;;;2.03;1.00;;;20.20;1.00;;;;;;5073813;28;20460;-60
2023/07/19 03:13:53;;;;;;;1.50;0.90;;;20.20;1.00;;;;;;5075801;28;20443;-60
2023/07/19 03:16:20;;;;;;;2.50;1.00;;;20.10;1.00;;;;;;5077491;28;20791;-60
2023/07/19 03:18:47;;;;;;;1.52;0.90;;;20.10;1.00;;;;;;5076158;28;20468;-60
2023/07/19 03:21:14;;;;;;;2.88;1.00;;;20.00;1.00;;;;;;5077179;28;20875;-59
2023/07/19 03:23:42;;;;;;;1.73;1.00;;;19.90;1.00;;;;;;5077568;28;20428;-59
2023/07/19 03:26:09;;;;;;;1.58;1.10;;;20.00;1.00;;;;;;5078206;28;20423;-60
2023/07/19 03:28:36;;;;;;;2.10;1.20;;;20.00;1.00;;;;;;5077473;28;20501;-59
2023/07/19 03:31:03;;;;;;;2.00;1.10;;;20.10;1.00;;;;;;5076028;28;20439;-60
2023/07/19 03:33:30;;;;;;;2.10;1.00;;;20.10;1.00;;;;;;5076465;28;20431;-60
2023/07/19 03:35:57;;;;;;;2.60;1.00;;;20.10;1.00;;;;;;5076871;28;20439;-60
2023/07/19 03:38:24;;;;;;;1.90;0.90;;;20.10;1.00;;;;;;5076868;28;20724;-60
2023/07/19 03:40:53;;;;;;;1.27;0.85;;;20.00;1.00;;;;;;5077541;28;20431;-61
2023/07/19 03:43:20;;;;;;;3.05;1.00;;;20.00;1.00;;;;;;5077472;28;20423;-60
2023/07/19 03:45:47;;;;;;;1.90;1.00;;;20.00;1.00;;;;;;5075569;28;20432;-60
2023/07/19 03:48:14;;;;;;;4.00;1.20;;;19.90;1.00;;;;;;5075866;28;20843;-59
2023/07/19 03:50:41;;;;;;;1.70;1.00;;;19.90;1.00;;;;;;5075094;28;20431;-59
2023/07/19 03:53:08;;;;;;;2.80;0.90;;;19.80;10.50;;;;;;5077113;28;20774;-60
2023/07/19 03:55:35;;;;;;;1.75;1.08;;;19.80;16.10;;;;;;5076575;28;20443;-59
2023/07/19 03:58:03;;;;;;;1.50;0.90;;;19.70;21.70;;;;;;5076632;28;20438;-59
2023/07/19 04:00:30;;;;;;;2.97;1.00;;;19.70;20.90;;;;;;5077188;28;20426;-60
2023/07/19 04:02:58;;;;;;;1.60;1.30;;;19.60;18.60;;;;;;5075676;28;20845;-59
2023/07/19 04:05:25;;;;;;;2.50;1.00;;;19.70;17.40;;;;;;5076241;28;20427;-60
2023/07/19 04:07:52;;;;;;;2.60;1.10;;;19.70;15.90;;;;;;5076486;28;20427;-60
2023/07/19 04:10:19;;;;;;;2.40;1.00;;;19.70;9.30;;;;;;5074909;28;20435;-60
2023/07/19 04:12:46;;;;;;;2.38;1.00;;;19.70;8.70;;;;;;5075312;28;20715;-60
2023/07/19 04:15:15;;;;;;;1.60;0.90;;;19.70;2.80;;;;;;5075771;28;20510;-60
2023/07/19 04:17:42;;;;;;;1.70;1.10;;;19.70;8.10;;;;;;5075729;28;20434;-60
2023/07/19 04:20:10;;;;;;;1.85;0.90;;;19.70;1.80;;;;;;5075378;28;20735;-60
2023/07/19 04:22:37;;;;;;;1.60;0.93;;;19.80;1.00;;;;;;5075741;28;20427;-60
2023/07/19 04:25:04;;;;;;;1.80;1.00;;;19.80;1.00;;;;;;5075224;28;20435;-60
2023/07/19 04:27:32;;;;;;;1.65;0.80;;;19.80;1.00;;;;;;5074974;28;20416;-62
2023/07/19 04:29:59;;;;;;;1.70;1.00;;;19.90;1.00;;;;;;5076217;28;20913;-60
2023/07/19 04:32:28;;;;;;;1.20;0.90;;;20.00;1.00;;;;;;5076053;28;20427;-59
2023/07/19 04:34:55;;;;;;;2.00;1.00;;;20.00;1.00;;;;;;5075156;28;20432;-59
2023/07/19 04:37:22;;;;;;;1.30;0.90;;;20.10;1.00;;;;;;5074409;28;20995;-59
2023/07/19 04:39:49;;;;;;;1.40;1.00;;;20.00;1.00;;;;;;5075990;28;20416;-60
2023/07/19 04:42:17;;;;;;;2.10;1.00;;;20.00;1.00;;;;;;5075074;28;20759;-60
2023/07/19 04:44:44;;;;;;;2.20;1.00;;;20.00;1.00;;;;;;5075409;28;20423;-57
2023/07/19 04:47:11;;;;;;;2.28;1.00;;;20.00;1.00;;;;;;5074802;28;20497;-58
2023/07/19 04:49:40;;;;;;;2.50;1.20;;;20.10;1.00;;;;;;5075534;28;20863;-58
2023/07/19 04:52:08;;;;;;;3.00;1.00;;;20.10;1.00;;;;;;5075137;28;20928;-58
2023/07/19 04:54:35;;;;;;;1.70;1.00;;;20.10;1.00;;;;;;5074449;28;20736;-58
2023/07/19 04:57:02;;;;;;;1.40;0.90;;;20.10;1.00;;;;;;5074812;28;20420;-58
2023/07/19 04:59:29;;;;;;;1.60;1.00;;;20.10;1.00;;;;;;5073549;28;20439;-58
2023/07/19 05:01:57;;;;;;;2.90;0.90;;;20.00;1.00;;;;;;5073832;28;20428;-58
2023/07/19 05:04:24;;;;;;;1.60;1.00;;;20.00;1.00;;;;;;5075376;28;20434;-55
2023/07/19 05:06:52;;;;;;;1.45;0.88;;;20.00;1.00;;;;;;5074827;28;20689;-57
2023/07/19 05:09:20;;;;;;;1.95;0.90;;;20.00;1.00;;;;;;5074698;28;20416;-57
2023/07/19 05:11:48;;;;;;;2.55;0.90;;;19.90;1.00;;;;;;5074644;28;20432;-56
2023/07/19 05:14:15;;;;;;;2.80;1.37;;;19.90;1.00;;;;;;5075217;28;20442;-59
2023/07/19 05:16:42;;;;;;;1.80;0.90;;;19.90;1.00;;;;;;5074985;28;20732;-59
2023/07/19 05:19:09;;;;;;;3.08;0.90;;;19.90;1.00;;;;;;5074865;28;20886;-58
2023/07/19 05:21:36;;;;;;;1.33;0.90;;;20.10;1.00;;;;;;5074172;28;20924;-58
2023/07/19 05:24:05;;;;;;;1.50;0.90;;;20.10;1.00;;;;;;5072863;28;20727;-58
2023/07/19 05:26:32;;;;;;;1.60;0.80;;;20.10;1.00;;;;;;5074718;28;20827;-57
2023/07/19 05:29:00;;;;;;;1.83;0.80;;;20.20;1.00;;;;;;5074683;28;20427;-58
2023/07/19 05:31:27;;;;;;;1.98;0.90;;;20.20;1.00;;;;;;5074227;28;20457;-57
2023/07/19 05:33:54;;;;;;;2.50;0.90;;;20.30;1.00;;;;;;5073379;28;20897;-58
2023/07/19 05:36:21;;;;;;;1.60;0.90;;;20.40;1.00;;;;;;5073052;28;20424;-57
2023/07/19 05:38:48;;;;;;;2.00;0.90;;;20.40;1.00;;;;;;5073443;28;20512;-58
2023/07/19 05:41:16;;;;;;;1.45;1.10;;;20.40;1.00;;;;;;5072984;28;20428;-57
2023/07/19 05:43:44;;;;;;;2.10;1.40;;;20.40;1.00;;;;;;5072690;28;20431;-58
2023/07/19 05:46:11;;;;;;;1.20;0.90;;;20.50;1.00;;;;;;5072504;28;20432;-57
2023/07/19 05:48:38;;;;;;;1.30;0.80;;;20.60;1.00;;;;;;5071848;28;20423;-58
2023/07/19 05:51:08;;;;;;;1.50;0.90;;;20.70;1.00;;;;;;5072863;28;20827;-57
2023/07/19 05:53:35;;;;;;;3.03;0.90;;;20.80;1.00;;;;;;5073760;28;20436;-57
2023/07/19 05:56:02;;;;;;;2.10;0.90;;;20.90;1.00;;;;;;5069652;28;20423;-57
2023/07/19 05:58:31;;;;;;;1.55;0.90;;;21.00;1.00;;;;;;5069287;28;20524;-57
2023/07/19 06:00:58;;;;;;;1.50;0.90;;;21.00;1.00;;;;;;5070952;28;20433;-55
2023/07/19 06:03:25;;;;;;;1.38;0.90;;;21.20;1.00;;;;;;5069918;28;20416;-57
2023/07/19 06:05:52;;;;;;;1.40;0.90;;;21.20;1.00;;;;;;5070392;28;20431;-55
2023/07/19 06:08:19;;;;;;;1.40;0.90;;;21.30;1.00;;;;;;5071121;28;20426;-57
2023/07/19 06:10:46;;;;;;;1.10;0.70;;;21.40;1.00;;;;;;5069916;28;20434;-56
2023/07/19 06:13:14;;;;;;;1.45;0.90;;;21.70;99.90;;;;;;5065722;28;20451;-55
2023/07/19 06:15:42;;;;;;;1.60;0.80;;;21.90;1.00;;;;;;5069619;28;20509;-55
2023/07/19 06:18:10;;;;;;;2.30;0.90;;;22.10;99.90;;;;;;5072589;28;20430;-55
2023/07/19 06:20:37;;;;;;;1.52;0.80;;;22.20;99.90;;;;;;5071387;28;20443;-56
2023/07/19 06:23:04;;;;;;;1.67;0.80;;;22.30;99.90;;;;;;5070745;28;20782;-56
2023/07/19 06:25:31;;;;;;;1.40;0.70;;;22.40;38.30;;;;;;5071663;28;20427;-56
2023/07/19 06:27:59;;;;;;;0.90;0.70;;;22.50;99.90;;;;;;5073186;28;20740;-56
2023/07/19 06:30:26;;;;;;;1.50;0.80;;;22.60;1.00;;;;;;5070546;28;20934;-55
2023/07/19 06:32:54;;;;;;;2.00;0.80;;;22.70;99.90;;;;;;5072040;28;20423;-52
2023/07/19 06:35:21;;;;;;;1.73;0.80;;;22.70;1.00;;;;;;5071365;28;20877;-54
2023/07/19 06:37:49;;;;;;;1.50;0.80;;;22.70;1.00;;;;;;5073001;28;20423;-53
2023/07/19 06:40:16;;;;;;;2.35;0.90;;;22.90;1.00;;;;;;5072039;28;20740;-50
2023/07/19 06:42:43;;;;;;;2.20;0.70;;;23.10;99.90;;;;;;5070743;28;20843;-53
2023/07/19 06:45:11;;;;;;;1.80;0.80;;;23.20;1.00;;;;;;5068665;28;20813;-54
2023/07/19 06:47:38;;;;;;;1.13;0.70;;;23.30;1.00;;;;;;5070543;28;20689;-49
2023/07/19 06:50:08;;;;;;;1.10;0.80;;;23.30;1.00;;;;;;5071939;28;20462;-55
2023/07/19 06:52:36;;;;;;;1.27;0.70;;;23.40;1.00;;;;;;5069475;28;20442;-55
2023/07/19 06:55:05;;;;;;;1.00;0.70;;;23.40;99.90;;;;;;5072408;28;21060;-52
2023/07/19 06:57:32;;;;;;;1.95;0.80;;;23.50;99.90;;;;;;5070623;28;20442;-52
2023/07/19 07:00:00;;;;;;;1.75;0.82;;;23.60;99.90;;;;;;5074302;28;20484;-54
2023/07/19 07:02:27;;;;;;;1.00;0.80;;;23.80;99.90;;;;;;5070597;28;20443;-51
2023/07/19 07:04:54;;;;;;;1.00;0.70;;;23.90;90.60;;;;;;5071674;28;20439;-52
2023/07/19 07:07:22;;;;;;;3.90;0.70;;;24.10;1.00;;;;;;5072900;28;20431;-54
2023/07/19 07:09:49;;;;;;;1.35;0.70;;;24.20;1.00;;;;;;5074439;28;20419;-55
2023/07/19 07:12:16;;;;;;;1.50;0.60;;;24.20;1.00;;;;;;5074302;28;20442;-53
2023/07/19 07:14:43;;;;;;;1.20;0.60;;;24.20;99.90;;;;;;5074110;28;20431;-48
2023/07/19 07:17:11;;;;;;;2.00;0.70;;;24.30;99.90;;;;;;5073381;28;20434;-56
2023/07/19 07:19:38;;;;;;;1.20;0.70;;;24.50;99.90;;;;;;5071845;28;20560;-54
2023/07/19 07:22:05;;;;;;;1.33;0.70;;;24.50;99.90;;;;;;5071358;28;20439;-54
2023/07/19 07:24:34;;;;;;;0.80;0.70;;;24.60;99.90;;;;;;5071846;28;20431;-52
2023/07/19 07:27:02;;;;;;;1.38;0.60;;;24.70;99.90;;;;;;5069871;28;20895;-56
2023/07/19 07:29:29;;;;;;;1.10;0.60;;;24.80;99.90;;;;;;5072293;28;20450;-54
2023/07/19 07:31:56;;;;;;;1.50;0.70;;;24.80;99.90;;;;;;5074593;28;20431;-55
2023/07/19 07:34:24;;;;;;;0.80;0.50;;;24.80;99.10;;;;;;5074418;28;20454;-56
2023/07/19 07:36:51;;;;;;;1.40;0.70;;;24.90;94.00;;;;;;5072935;28;20518;-53
2023/07/19 07:39:19;;;;;;;1.60;0.75;;;25.00;79.50;;;;;;5072024;28;20435;-55
2023/07/19 07:41:47;;;;;;;0.95;0.50;;;25.00;31.70;;;;;;5060763;28;20479;-52
2023/07/19 07:44:15;;;;;;;1.00;0.50;;;25.00;13.70;;;;;;5066488;28;20428;-52
2023/07/19 07:46:42;;;;;;;1.60;0.60;;;25.10;4.20;;;;;;5073139;28;20431;-53
2023/07/19 07:49:09;;;;;;;1.10;0.50;;;25.10;1.00;;;;;;5070604;28;20503;-53
2023/07/19 07:51:36;;;;;;;1.50;0.50;;;25.20;1.00;;;;;;5062728;28;20496;-53
2023/07/19 07:54:03;;;;;;;1.00;0.40;;;25.20;1.00;;;;;;5072491;28;20453;-55
2023/07/19 07:56:30;;;;;;;1.95;0.50;;;25.30;1.00;;;;;;5071109;28;20541;-52
2023/07/19 07:58:59;;;;;;;1.25;0.40;;;25.30;1.00;;;;;;5069029;28;20435;-53
2023/07/19 08:01:26;;;;;;;0.80;0.40;;;25.30;1.00;;;;;;5068827;28;20899;-54
2023/07/19 08:03:53;;;;;;;1.23;0.40;;;25.40;1.00;;;;;;5071549;28;20436;-56
2023/07/19 08:06:20;;;;;;;0.60;0.40;;;25.50;1.00;;;;;;5073167;28;20431;-56
2023/07/19 08:08:47;;;;;;;0.90;0.40;;;25.60;1.00;;;;;;5071508;28;20431;-54
2023/07/19 08:11:14;;;;;;;1.60;0.47;;;25.70;1.00;;;;;;5070458;28;20798;-51
2023/07/19 08:13:41;;;;;;;0.70;0.40;;;25.70;1.00;;;;;;5073218;28;20734;-52
2023/07/19 08:16:10;;;;;;;1.00;0.40;;;25.60;1.00;;;;;;5073552;28;20847;-51
2023/07/19 08:18:37;;;;;;;0.70;0.40;;;25.70;1.00;;;;;;5072407;28;20583;-54
2023/07/19 08:21:05;;;;;;;0.80;0.40;;;25.70;1.00;;;;;;5068234;28;20444;-51
2023/07/19 08:23:33;;;;;;;0.70;0.40;;;25.80;1.00;;;;;;5073720;28;20423;-53
2023/07/19 08:26:00;;;;;;;0.90;0.40;;;25.90;1.00;;;;;;5072918;28;20655;-55
2023/07/19 08:28:27;;;;;;;0.73;0.40;;;26.00;1.00;;;;;;5073259;28;20600;-51
2023/07/19 08:30:54;;;;;;;0.70;0.40;;;26.10;1.00;;;;;;5072668;28;20443;-52
2023/07/19 08:33:25;;;;;;;0.70;0.40;;;26.20;1.00;;;;;;5073039;28;20420;-54
2023/07/19 08:35:52;;;;;;;0.90;0.40;;;26.20;1.00;;;;;;5072375;28;20950;-52
2023/07/19 08:38:20;;;;;;;1.30;0.40;;;26.30;1.00;;;;;;5074863;28;20538;-50
2023/07/19 08:40:55;;;;;;;3.75;0.50;;;26.50;1.00;;;;;;5072481;28;20727;-54
2023/07/19 08:43:26;;;;;;;1.40;0.50;;;26.50;1.00;;;;;;5053671;28;20440;-54
2023/07/19 08:45:53;;;;;;;10.43;1.23;;;26.40;1.00;;;;;;5062696;28;20427;-54
2023/07/19 08:48:21;;;;;;;2.28;0.40;;;26.40;1.00;;;;;;5072399;28;20427;-52
2023/07/19 08:50:55;;;;;;;1.10;0.40;;;26.40;1.00;;;;;;5071539;28;20453;-50
2023/07/19 08:53:22;;;;;;;0.80;0.40;;;26.50;1.00;;;;;;5070630;28;20436;-51
2023/07/19 08:55:50;;;;;;;1.50;0.40;;;26.50;1.00;;;;;;5066031;28;20871;-54
2023/07/19 08:58:18;;;;;;;0.80;0.30;;;26.50;1.00;;;;;;5063667;28;20439;-54
2023/07/19 09:00:46;;;;;;;0.60;0.30;;;26.60;1.00;;;;;;5067739;28;20744;-55
2023/07/19 09:03:14;;;;;;;0.60;0.40;;;26.80;1.00;;;;;;5068772;28;20739;-55
2023/07/19 09:05:41;;;;;;;0.60;0.30;;;26.80;1.00;;;;;;5066087;28;20428;-56
2023/07/19 09:08:10;;;;;;;1.10;0.30;;;26.90;1.00;;;;;;5070114;28;20534;-55
2023/07/19 09:10:37;;;;;;;0.70;0.40;;;26.90;1.00;;;;;;5069084;28;20439;-54
2023/07/19 09:13:06;;;;;;;0.60;0.30;;;26.90;1.00;;;;;;5071622;28;20740;-58
2023/07/19 09:15:35;;;;;;;0.50;0.30;;;27.00;1.00;;;;;;5071838;28;20424;-57
2023/07/19 09:18:05;;;;;;;0.95;0.40;;;27.10;1.00;;;;;;5070373;28;20815;-57
2023/07/19 09:20:37;;;;;;;1.00;0.40;;;27.20;1.00;;;;;;5062322;28;20435;-55
2023/07/19 09:23:06;;;;;;;0.70;0.40;;;27.10;1.00;;;;;;5058700;28;20440;-57
2023/07/19 09:25:51;;;;;;;0.70;0.40;;;27.10;1.00;;;;;;5061249;28;20467;-56
2023/07/19 09:28:21;;;;;;;0.80;0.40;;;27.20;1.00;;;;;;5064734;28;20517;-54
2023/07/19 09:30:56;;;;;;;0.80;0.40;;;27.20;1.00;;;;;;5071498;28;20423;-51
2023/07/19 09:33:25;;;;;;;1.10;0.40;;;27.20;1.00;;;;;;5057139;28;20530;-57
2023/07/19 09:35:55;;;;;;;0.60;0.35;;;27.40;1.00;;;;;;5060277;28;20435;-50
2023/07/19 09:38:23;;;;;;;0.70;0.40;;;27.50;1.00;;;;;;5068804;28;20548;-54
2023/07/19 09:40:52;;;;;;;0.60;0.40;;;27.50;1.00;;;;;;5066828;28;20492;-58
2023/07/19 09:43:20;;;;;;;0.82;0.40;;;27.50;1.00;;;;;;5064082;28;20446;-58
2023/07/19 09:45:51;;;;;;;0.90;0.40;;;27.80;1.00;;;;;;5070144;28;20462;-58
2023/07/19 09:48:19;;;;;;;0.90;0.40;;;27.90;1.00;;;;;;5070074;28;20443;-58
2023/07/19 09:50:50;;;;;;;0.60;0.40;;;28.00;1.00;;;;;;5070734;28;20427;-57
2023/07/19 09:53:17;;;;;;;0.77;0.40;;;28.00;1.00;;;;;;5069842;28;20493;-56
2023/07/19 09:55:48;;;;;;;1.20;0.60;;;27.90;1.00;;;;;;5070632;28;20427;-55
2023/07/19 09:58:18;;;;;;;1.17;0.40;;;28.00;1.00;;;;;;5069960;28;20439;-57
2023/07/19 10:00:47;;;;;;;1.13;0.40;;;28.10;1.00;;;;;;5071657;28;20434;-59
2023/07/19 10:03:19;;;;;;;1.20;0.30;;;28.10;1.00;;;;;;5064781;28;20488;-58
2023/07/19 10:05:46;;;;;;;1.30;0.50;;;28.30;1.00;;;;;;5070723;28;20467;-59
2023/07/19 10:08:13;;;;;;;0.60;0.40;;;28.40;1.00;;;;;;5068310;28;20439;-58
2023/07/19 10:10:41;;;;;;;1.27;0.40;;;28.40;1.00;;;;;;5059174;28;20454;-58
2023/07/19 10:13:09;;;;;;;0.60;0.40;;;28.40;1.00;;;;;;5070759;28;20762;-61
2023/07/19 10:15:38;;;;;;;0.70;0.40;;;28.30;1.00;;;;;;5069400;28;20428;-59
2023/07/19 10:18:12;;;;;;;0.85;0.40;;;28.40;1.00;;;;;;5069082;28;20430;-59
2023/07/19 10:20:42;;;;;;;0.60;0.40;;;28.40;1.00;;;;;;5065157;28;20439;-58
2023/07/19 10:23:09;;;;;;;0.70;0.40;;;28.50;1.00;;;;;;5061763;28;20477;-59
2023/07/19 10:25:38;;;;;;;1.10;0.40;;;28.70;1.00;;;;;;5061761;28;20429;-58
2023/07/19 10:28:07;;;;;;;0.68;0.40;;;29.10;1.00;;;;;;5069518;28;20865;-55
2023/07/19 10:30:55;;;;;;;0.60;0.30;;;29.60;1.00;;;;;;5070360;28;21090;-58
2023/07/19 10:33:24;;;;;;;0.70;0.40;;;30.00;1.00;;;;;;5068957;28;20431;-58
2023/07/19 10:35:52;;;;;;;2.25;0.50;;;30.30;1.00;;;;;;5071341;28;20855;-58
2023/07/19 10:38:21;;;;;;;1.50;0.50;;;30.60;1.00;;;;;;5070151;28;20453;-59
2023/07/19 10:40:54;;;;;;;0.68;0.40;;;30.90;1.00;;;;;;5068316;28;20443;-59
2023/07/19 10:43:21;;;;;;;0.80;0.40;;;31.10;1.00;;;;;;5069832;28;20533;-58
2023/07/19 10:45:49;;;;;;;0.80;0.40;;;31.30;1.00;;;;;;5072428;28;20463;-57
2023/07/19 10:48:17;;;;;;;0.80;0.40;;;31.10;1.00;;;;;;5069869;28;20435;-59
2023/07/19 10:50:45;;;;;;;0.80;0.40;;;31.50;1.00;;;;;;5071655;28;20886;-59
2023/07/19 10:53:13;;;;;;;1.63;0.50;;;32.00;1.00;;;;;;5069765;28;20424;-57
2023/07/19 10:55:40;;;;;;;2.00;0.63;;;32.40;1.00;;;;;;5066249;28;20467;-59
2023/07/19 10:58:07;;;;;;;2.25;0.50;;;32.70;1.00;;;;;;5071567;28;20427;-59
2023/07/19 11:00:37;;;;;;;0.60;0.40;;;32.50;1.00;;;;;;5071342;28;20441;-59
2023/07/19 11:03:07;;;;;;;0.90;0.50;;;32.10;1.00;;;;;;5071443;28;20435;-59
2023/07/19 11:05:41;;;;;;;0.90;0.50;;;32.30;1.00;;;;;;5072342;28;20712;-58
2023/07/19 11:08:08;;;;;;;0.90;0.60;;;32.20;1.00;;;;;;5070201;28;20830;-59
2023/07/19 11:10:36;;;;;;;2.10;0.60;;;32.30;1.00;;;;;;5069764;28;20529;-60
2023/07/19 11:13:03;;;;;;;0.60;0.40;;;32.10;1.00;;;;;;5058222;28;20504;-58
2023/07/19 11:15:31;;;;;;;0.70;0.40;;;31.70;1.00;;;;;;5071881;28;20953;-60
2023/07/19 11:17:59;;;;;;;0.70;0.50;;;31.30;1.00;;;;;;5068609;28;20431;-60
2023/07/19 11:20:31;;;;;;;0.70;0.50;;;30.70;1.00;;;;;;5070914;28;20455;-59
2023/07/19 11:23:08;;;;;;;0.80;0.40;;;30.40;1.00;;;;;;5070016;28;20847;-59
2023/07/19 11:25:38;;;;;;;1.20;0.50;;;30.60;1.00;;;;;;5070375;28;20534;-60
2023/07/19 11:28:05;;;;;;;1.40;0.47;;;30.30;1.00;;;;;;5069016;28;20497;-58
2023/07/19 11:30:39;;;;;;;1.30;0.60;;;30.20;1.00;;;;;;5069978;28;20447;-59
2023/07/19 11:33:08;;;;;;;0.70;0.50;;;30.40;1.00;;;;;;5068040;28;20825;-60
2023/07/19 11:35:36;;;;;;;1.35;0.47;;;30.60;1.00;;;;;;5074381;28;20431;-60
2023/07/19 11:38:03;;;;;;;1.42;0.50;;;30.70;1.00;;;;;;5073693;28;20493;-60
2023/07/19 11:40:31;;;;;;;1.60;0.45;;;30.40;1.00;;;;;;5074334;28;20831;-60
2023/07/19 11:42:59;;;;;;;0.70;0.40;;;30.30;1.00;;;;;;5072273;28;20440;-61
2023/07/19 11:45:28;;;;;;;0.80;0.40;;;29.90;1.00;;;;;;5072112;28;20874;-59
2023/07/19 11:47:58;;;;;;;1.60;0.50;;;29.90;1.00;;;;;;5074143;28;20477;-60
2023/07/19 11:50:26;;;;;;;1.42;0.40;;;30.20;1.00;;;;;;5072770;28;20427;-59
2023/07/19 11:52:56;;;;;;;1.20;0.50;;;30.20;1.00;;;;;;5067568;28;20478;-59
2023/07/19 11:55:25;;;;;;;1.30;0.50;;;30.40;1.00;;;;;;5073000;28;20427;-60
2023/07/19 11:57:55;;;;;;;1.60;0.50;;;30.50;1.00;;;;;;5071372;28;20435;-60
2023/07/19 12:00:23;;;;;;;0.80;0.50;;;30.00;1.00;;;;;;5069512;28;20489;-59
2023/07/19 12:02:52;;;;;;;0.70;0.50;;;30.10;1.00;;;;;;5072275;28;20442;-58
2023/07/19 12:05:21;;;;;;;0.60;0.40;;;30.60;1.00;;;;;;5073508;28;20826;-59
2023/07/19 12:07:51;;;;;;;1.40;0.50;;;30.50;1.00;;;;;;5072285;28;20439;-58
2023/07/19 12:10:19;;;;;;;1.30;0.40;;;31.00;1.00;;;;;;5071338;28;20871;-60
2023/07/19 12:12:49;;;;;;;0.90;0.40;;;31.10;1.00;;;;;;5070530;28;20427;-58
2023/07/19 12:15:19;;;;;;;1.58;0.50;;;31.00;1.00;;;;;;5082618;28;20485;-60
2023/07/19 12:17:47;;;;;;;0.80;0.50;;;31.10;1.00;;;;;;5067959;28;20443;-58
2023/07/19 12:20:14;;;;;;;0.73;0.50;;;31.50;1.00;;;;;;5073722;28;20903;-59
2023/07/19 12:22:42;;;;;;;0.80;0.50;;;31.90;1.00;;;;;;5070807;28;20446;-59
2023/07/19 12:25:10;;;;;;;0.90;0.50;;;31.90;1.00;;;;;;5073864;28;20430;-60
2023/07/19 12:27:38;;;;;;;1.00;0.50;;;32.10;1.00;;;;;;5070560;28;20442;-59
2023/07/19 12:30:09;;;;;;;2.00;0.55;;;32.50;1.00;;;;;;5068026;28;20435;-59
2023/07/19 12:32:38;;;;;;;1.27;0.50;;;32.60;1.00;;;;;;5069934;28;20505;-59
2023/07/19 12:35:06;;;;;;;0.93;0.50;;;32.50;1.00;;;;;;5072039;28;20481;-59
2023/07/19 12:37:34;;;;;;;1.20;0.50;;;32.40;1.00;;;;;;5071876;28;20431;-60
2023/07/19 12:40:05;;;;;;;1.10;0.60;;;32.10;1.00;;;;;;5070863;28;20431;-59
2023/07/19 12:42:32;;;;;;;1.10;0.50;;;31.20;1.00;;;;;;5069023;28;20423;-60
2023/07/19 12:44:59;;;;;;;1.08;0.60;;;31.10;1.00;;;;;;5070612;28;20438;-60
2023/07/19 12:47:27;;;;;;;0.80;0.50;;;31.40;1.00;;;;;;5072029;28;20438;-59
2023/07/19 12:49:55;;;;;;;1.10;0.60;;;31.50;1.00;;;;;;5072027;28;20521;-59
2023/07/19 12:52:23;;;;;;;1.48;0.60;;;31.60;1.00;;;;;;5069980;28;20936;-59
2023/07/19 12:54:50;;;;;;;0.90;0.50;;;31.80;1.00;;;;;;5069722;28;20851;-59
2023/07/19 12:57:17;;;;;;;1.08;0.57;;;31.90;1.00;;;;;;5065222;28;20434;-58
2023/07/19 12:59:44;;;;;;;1.50;0.60;;;31.80;1.00;;;;;;5068073;28;20423;-60